Time;durP1;ratioP1;P1;durP2;ratioP2;P2;SDS_P1;SDS_P2;PMS_P1;PMS_P2;Temp;Humidity;BMP_temperature;BMP_pressure;BME280_temperature;BME280_humidity;BME280_pressure;Samples;Min_cycle;Max_cycle;Signal;HPM_P1;HPM_P2
2023/09/07 00:01:19;;;;;;;10.63;7.00;;;;;;;;;;5036058;28;20202;-66
2023/09/07 00:03:45;;;;;;;9.70;7.37;;;;;;;;;;5035595;28;20171;-65
2023/09/07 00:06:11;;;;;;;11.33;6.90;;;;;;;;;;5035616;28;20211;-66
2023/09/07 00:08:37;;;;;;;10.10;6.03;;;;;;;;;;5017694;28;20199;-66
2023/09/07 00:11:04;;;;;;;8.60;7.00;;;;;;;;;;5017673;28;20670;-66
2023/09/07 00:13:30;;;;;;;8.10;6.90;;;;;;;;;;5017593;28;20234;-66
2023/09/07 00:16:00;;;;;;;9.07;7.30;;;;;;;;;;5036003;28;20636;-66
2023/09/07 00:18:26;;;;;;;11.10;7.53;;;;;;;;;;5035143;28;20286;-66
2023/09/07 00:20:51;;;;;;;9.07;6.77;;;;;;;;;;5035086;28;20310;-66
2023/09/07 00:23:19;;;;;;;11.80;6.80;;;;;;;;;;5035179;28;20181;-65
2023/09/07 00:25:45;;;;;;;7.97;6.90;;;;;;;;;;5017256;28;20179;-67
2023/09/07 00:28:11;;;;;;;12.70;7.73;;;;;;;;;;5017662;28;20534;-66
2023/09/07 00:30:37;;;;;;;11.80;6.53;;;;;;;;;;5017190;28;20237;-67
2023/09/07 00:33:03;;;;;;;13.57;6.97;;;;;;;;;;5035258;28;20189;-67
2023/09/07 00:35:29;;;;;;;19.23;6.97;;;;;;;;;;5034736;28;20245;-67
2023/09/07 00:37:56;;;;;;;12.33;7.13;;;;;;;;;;5017423;28;20175;-67
2023/09/07 00:40:22;;;;;;;7.20;6.37;;;;;;;;;;5034684;28;20253;-67
2023/09/07 00:42:48;;;;;;;9.00;6.13;;;;;;;;;;5016347;28;20183;-67
2023/09/07 00:45:14;;;;;;;8.57;6.10;;;;;;;;;;5034720;28;20179;-67
2023/09/07 00:47:40;;;;;;;10.10;6.40;;;;;;;;;;5034676;28;20174;-67
2023/09/07 00:50:07;;;;;;;11.73;5.87;;;;;;;;;;5034843;28;20203;-67
2023/09/07 00:52:33;;;;;;;5.83;5.27;;;;;;;;;;5017807;28;20198;-66
2023/09/07 00:55:00;;;;;;;13.63;5.97;;;;;;;;;;5016824;28;20207;-67
2023/09/07 00:57:26;;;;;;;13.47;6.20;;;;;;;;;;5034611;28;20181;-66
2023/09/07 00:59:52;;;;;;;7.97;6.07;;;;;;;;;;5034764;28;20640;-67
2023/09/07 01:02:18;;;;;;;7.57;6.20;;;;;;;;;;5035023;28;20179;-66
2023/09/07 01:04:44;;;;;;;6.60;5.30;;;;;;;;;;5036628;28;20183;-65
2023/09/07 01:07:14;;;;;;;7.33;5.87;;;;;;;;;;5020956;28;20202;-64
2023/09/07 01:09:41;;;;;;;5.80;5.23;;;;;;;;;;5017278;28;20597;-65
2023/09/07 01:12:10;;;;;;;6.43;5.83;;;;;;;;;;5016707;28;20187;-64
2023/09/07 01:14:36;;;;;;;7.80;4.97;;;;;;;;;;5034210;28;20172;-66
2023/09/07 01:17:02;;;;;;;9.07;5.53;;;;;;;;;;5016385;28;20554;-64
2023/09/07 01:19:28;;;;;;;9.33;5.53;;;;;;;;;;5016402;28;20191;-65
2023/09/07 01:21:54;;;;;;;8.10;5.50;;;;;;;;;;5016284;28;20336;-66
2023/09/07 01:24:20;;;;;;;;;;;;;;;;;;5034732;28;20182;-66
2023/09/07 01:26:49;;;;;;;;;;;;;;;;;;5034774;28;19933;-66
2023/09/07 01:29:16;;;;;;;;;;;;;;;;;;5033968;28;19971;-66
2023/09/07 01:31:42;;;;;;;;;;;;;;;;;;5034063;28;19947;-65
2023/09/07 01:34:08;;;;;;;;;;;;;;;;;;5016658;28;19997;-65
2023/09/07 01:36:34;;;;;;;;;;;;;;;;;;5034246;28;19960;-65
2023/09/07 01:39:00;;;;;;;;;;;;;;;;;;5034151;28;20039;-65
2023/09/07 01:41:26;;;;;;;;;;;;;;;;;;5034067;28;19949;-66
2023/09/07 01:43:52;;;;;;;;;;;;;;;;;;5034074;28;20005;-65
2023/09/07 01:46:18;;;;;;;;;;;;;;;;;;5034243;28;20035;-66
2023/09/07 01:48:44;;;;;;;;;;;;;;;;;;5016374;28;19965;-66
2023/09/07 01:51:10;;;;;;;;;;;;;;;;;;5034238;28;20451;-66
2023/09/07 01:53:36;;;;;;;;;;;;;;;;;;5033695;28;19950;-66
2023/09/07 01:56:01;;;;;;;;;;;;;;;;;;5033735;28;20004;-66
2023/09/07 01:58:27;;;;;;;;;;;;;;;;;;5033700;28;20417;-66
2023/09/07 02:00:53;;;;;;;;;;;;;;;;;;5033880;28;19949;-66
2023/09/07 02:03:19;;;;;;;;;;;;;;;;;;5034050;28;19944;-66
2023/09/07 02:05:45;;;;;;;;;;;;;;;;;;5015960;28;19987;-67
2023/09/07 02:08:11;;;;;;;;;;;;;;;;;;5033918;28;20415;-66
2023/09/07 02:10:37;;;;;;;;;;;;;;;;;;5016763;28;19984;-67
2023/09/07 02:13:03;;;;;;;;;;;;;;;;;;5036542;28;19947;-64
2023/09/07 02:15:29;;;;;;;;;;;;;;;;;;5042435;28;20362;-65
2023/09/07 02:17:55;;;;;;;;;;;;;;;;;;5021734;28;19993;-66
2023/09/07 02:20:21;;;;;;;;;;;;;;;;;;5034373;28;19982;-66
2023/09/07 02:22:47;;;;;;;;;;;;;;;;;;5034890;28;20435;-65
2023/09/07 02:25:13;;;;;;;;;;;;;;;;;;5017318;28;19997;-66
2023/09/07 02:27:39;;;;;;;;;;;;;;;;;;5034946;28;20029;-66
2023/09/07 02:30:05;;;;;;;;;;;;;;;;;;5036172;28;19949;-65
2023/09/07 02:32:31;;;;;;;;;;;;;;;;;;5035131;28;20037;-64
2023/09/07 02:34:57;;;;;;;;;;;;;;;;;;5035091;28;19999;-66
2023/09/07 02:37:23;;;;;;;;;;;;;;;;;;5034982;28;19941;-64
2023/09/07 02:39:49;;;;;;;;;;;;;;;;;;5033621;28;19912;-65
2023/09/07 02:42:15;;;;;;;;;;;;;;;;;;5034435;28;19905;-67
2023/09/07 02:44:40;;;;;;;;;;;;;;;;;;5036842;28;19905;-66
2023/09/07 02:47:06;;;;;;;;;;;;;;;;;;5019108;28;20425;-66
2023/09/07 02:49:32;;;;;;;;;;;;;;;;;;5037973;28;20362;-66
2023/09/07 02:51:58;;;;;;;;;;;;;;;;;;5048535;28;19995;-67
2023/09/07 02:54:24;;;;;;;;;;;;;;;;;;5041587;28;19936;-66
2023/09/07 02:56:50;;;;;;;;;;;;;;;;;;5042179;28;19916;-66
2023/09/07 02:59:16;;;;;;;;;;;;;;;;;;5025432;28;20379;-66
2023/09/07 03:01:42;;;;;;;;;;;;;;;;;;5044504;28;19941;-66
2023/09/07 03:04:08;;;;;;;;;;;;;;;;;;5038640;28;19938;-66
2023/09/07 03:06:34;;;;;;;;;;;;;;;;;;5041603;28;20061;-66
2023/09/07 03:09:00;;;;;;;;;;;;;;;;;;5023465;28;19949;-66
2023/09/07 03:11:25;;;;;;;;;;;;;;;;;;5041209;28;19936;-66
2023/09/07 03:13:52;;;;;;;;;;;;;;;;;;5023962;28;20318;-66
2023/09/07 03:16:18;;;;;;;;;;;;;;;;;;5047810;28;19945;-66
2023/09/07 03:18:44;;;;;;;;;;;;;;;;;;5027616;28;19954;-66
2023/09/07 03:21:09;;;;;;;;;;;;;;;;;;5041807;28;19938;-66
2023/09/07 03:23:35;;;;;;;;;;;;;;;;;;5021540;28;20420;-65
2023/09/07 03:26:01;;;;;;;;;;;;;;;;;;5043398;22;19964;-68
2023/09/07 03:28:27;;;;;;;;;;;;;;;;;;5037231;28;19947;-69
2023/09/07 03:30:53;;;;;;;;;;;;;;;;;;5037041;28;19975;-69
2023/09/07 03:33:19;;;;;;;;;;;;;;;;;;5037008;28;19995;-68
2023/09/07 03:35:45;;;;;;;;;;;;;;;;;;5019109;28;20049;-69
2023/09/07 03:38:12;;;;;;;;;;;;;;;;;;5020844;28;20073;-69
2023/09/07 03:40:38;;;;;;;;;;;;;;;;;;5019384;28;20393;-69
2023/09/07 03:43:04;;;;;;;;;;;;;;;;;;5019228;28;19962;-68
2023/09/07 03:45:30;;;;;;;;;;;;;;;;;;5036907;28;19953;-70
2023/09/07 03:47:56;;;;;;;;;;;;;;;;;;5036833;28;19941;-69
2023/09/07 03:50:22;;;;;;;;;;;;;;;;;;5036579;28;19945;-70
2023/09/07 03:52:48;;;;;;;;;;;;;;;;;;5037142;28;19939;-70
2023/09/07 03:55:14;;;;;;;;;;;;;;;;;;5036559;28;19957;-69
2023/09/07 03:57:40;;;;;;;10.03;6.63;;;;;;;;;;5018281;28;20361;-70
2023/09/07 04:00:08;;;;;;;8.93;6.83;;;;;;;;;;5018101;28;20187;-70
2023/09/07 04:02:35;;;;;;;8.27;6.63;;;;;;;;;;5018049;28;20190;-70
2023/09/07 04:05:05;;;;;;;10.63;7.47;;;;;;;;;;5018050;28;20286;-69
2023/09/07 04:07:31;;;;;;;10.53;6.23;;;;;;;;;;5035819;28;20167;-69
2023/09/07 04:09:57;;;;;;;10.03;6.47;;;;;;;;;;5017939;28;20186;-69
2023/09/07 04:12:23;;;;;;;13.33;6.83;;;;;;;;;;5017935;28;20183;-70
2023/09/07 04:14:49;;;;;;;11.73;6.57;;;;;;;;;;5035752;28;20195;-70
2023/09/07 04:17:15;;;;;;;8.83;6.30;;;;;;;;;;5035518;28;20183;-69
2023/09/07 04:19:41;;;;;;;12.73;7.03;;;;;;;;;;5035459;28;20179;-69
2023/09/07 04:22:07;;;;;;;7.43;6.17;;;;;;;;;;5035926;28;20179;-71
2023/09/07 04:24:33;;;;;;;10.13;6.33;;;;;;;;;;5017571;28;20211;-70
2023/09/07 04:27:02;;;;;;;9.47;7.10;;;;;;;;;;5018297;28;20175;-70
2023/09/07 04:29:28;;;;;;;6.50;5.87;;;;;;;;;;5035801;28;20633;-70
2023/09/07 04:31:55;;;;;;;11.90;6.30;;;;;;;;;;5036043;28;20663;-69
2023/09/07 04:34:24;;;;;;;11.90;6.57;;;;;;;;;;5036093;28;20179;-69
2023/09/07 04:36:50;;;;;;;13.00;6.30;;;;;;;;;;5035132;28;20296;-69
2023/09/07 04:39:16;;;;;;;10.27;6.43;;;;;;;;;;5035278;28;20524;-69
2023/09/07 04:41:42;;;;;;;14.33;6.13;;;;;;;;;;5035602;28;20550;-70
2023/09/07 04:44:10;;;;;;;10.40;6.03;;;;;;;;;;5035634;28;20184;-69
2023/09/07 04:46:36;;;;;;;11.47;6.47;;;;;;;;;;5017564;28;20179;-69
2023/09/07 04:49:02;;;;;;;9.17;6.27;;;;;;;;;;5035965;28;20715;-69
2023/09/07 04:51:28;;;;;;;13.53;6.10;;;;;;;;;;5036343;28;20187;-69
2023/09/07 04:53:54;;;;;;;8.80;6.37;;;;;;;;;;5017929;28;20221;-69
2023/09/07 04:56:21;;;;;;;8.60;6.03;;;;;;;;;;5017155;28;20294;-70
2023/09/07 04:58:47;;;;;;;11.93;5.83;;;;;;;;;;5035080;28;20179;-69
2023/09/07 05:01:13;;;;;;;12.17;6.33;;;;;;;;;;5020481;28;20248;-70
2023/09/07 05:03:40;;;;;;;11.13;6.80;;;;;;;;;;5018944;28;20183;-70
2023/09/07 05:06:07;;;;;;;15.10;6.33;;;;;;;;;;5019335;28;20219;-70
2023/09/07 05:08:33;;;;;;;9.43;6.13;;;;;;;;;;5018651;28;20179;-70
2023/09/07 05:11:00;;;;;;;10.37;5.90;;;;;;;;;;5023787;28;20182;-69
2023/09/07 05:13:26;;;;;;;8.13;6.13;;;;;;;;;;5036301;28;20240;-70
2023/09/07 05:15:53;;;;;;;11.80;5.90;;;;;;;;;;5044463;28;20253;-70
2023/09/07 05:18:19;;;;;;;9.50;5.80;;;;;;;;;;5037462;28;20171;-71
2023/09/07 05:20:45;;;;;;;7.30;6.03;;;;;;;;;;5035668;28;20176;-70
2023/09/07 05:23:19;;;;;;;9.40;6.20;;;;;;;;;;5017408;28;20179;-70
2023/09/07 05:25:54;;;;;;;11.77;7.00;;;;;;;;;;5035307;28;20584;-70
2023/09/07 05:28:21;;;;;;;7.53;6.23;;;;;;;;;;5017685;28;20185;-70
2023/09/07 05:30:47;;;;;;;8.73;6.03;;;;;;;;;;5017507;28;20179;-70
2023/09/07 05:33:15;;;;;;;13.97;6.70;;;;;;;;;;5035079;28;20659;-70
2023/09/07 05:35:42;;;;;;;14.07;6.20;;;;;;;;;;5017411;28;20280;-70
2023/09/07 05:38:08;;;;;;;9.93;6.47;;;;;;;;;;5034858;28;20203;-69
2023/09/07 05:40:35;;;;;;;11.50;6.20;;;;;;;;;;5034543;28;20175;-70
2023/09/07 05:43:01;;;;;;;13.20;6.70;;;;;;;;;;5034811;28;20172;-70
2023/09/07 05:45:27;;;;;;;9.77;6.63;;;;;;;;;;5034694;28;20195;-70
2023/09/07 05:47:52;;;;;;;10.63;6.57;;;;;;;;;;5016769;28;20262;-70
2023/09/07 05:50:18;;;;;;;;;;;;;;;;;;5016901;28;20186;-70
2023/09/07 05:52:44;;;;;;;;;;;;;;;;;;5018046;28;20004;-70
2023/09/07 05:55:10;;;;;;;;;;;;;;;;;;5034690;28;19951;-70
2023/09/07 05:57:36;;;;;;;;;;;;;;;;;;5035192;28;20088;-70
2023/09/07 06:00:02;;;;;;;;;;;;;;;;;;5017130;28;19927;-71
2023/09/07 06:02:28;;;;;;;12.67;6.30;;;;;;;;;;5035022;28;20020;-70
2023/09/07 06:04:54;;;;;;;12.67;6.27;;;;;;;;;;5034382;28;20199;-70
2023/09/07 06:07:20;;;;;;;11.53;6.30;;;;;;;;;;5019916;28;20274;-70
2023/09/07 06:09:45;;;;;;;8.60;6.63;;;;;;;;;;5024031;28;20213;-70
2023/09/07 06:12:12;;;;;;;9.27;6.73;;;;;;;;;;5047919;28;20182;-70
2023/09/07 06:14:38;;;;;;;11.87;7.57;;;;;;;;;;5031914;28;20209;-70
2023/09/07 06:17:04;;;;;;;17.40;6.60;;;;;;;;;;5047776;28;20207;-70
2023/09/07 06:19:30;;;;;;;12.63;7.53;;;;;;;;;;5048850;28;20206;-70
2023/09/07 06:21:56;;;;;;;16.50;7.60;;;;;;;;;;5049941;28;20175;-70
2023/09/07 06:24:22;;;;;;;11.70;6.60;;;;;;;;;;5030486;28;20210;-70
2023/09/07 06:26:48;;;;;;;11.73;6.50;;;;;;;;;;5047381;28;20206;-70
2023/09/07 06:29:14;;;;;;;10.87;6.47;;;;;;;;;;5046584;28;20259;-70
2023/09/07 06:31:40;;;;;;;18.93;7.57;;;;;;;;;;5045344;28;20242;-70
2023/09/07 06:34:06;;;;;;;12.93;6.50;;;;;;;;;;5044154;28;20210;-70
2023/09/07 06:36:32;;;;;;;16.20;6.70;;;;;;;;;;5026397;28;20202;-70
2023/09/07 06:38:58;;;;;;;19.90;7.20;;;;;;;;;;5045462;28;20175;-70
2023/09/07 06:41:24;;;;;;;18.03;7.03;;;;;;;;;;5031385;28;20186;-70
2023/09/07 06:43:50;;;;;;;18.93;6.30;;;;;;;;;;5031524;28;20178;-70
2023/09/07 06:46:16;;;;;;;13.07;6.27;;;;;;;;;;5032690;28;20262;-70
2023/09/07 06:48:42;;;;;;;14.50;6.80;;;;;;;;;;5031335;28;20546;-70
2023/09/07 06:51:09;;;;;;;15.23;6.47;;;;;;;;;;5048025;28;20565;-70
2023/09/07 06:53:35;;;;;;;10.80;6.03;;;;;;;;;;5031066;28;20664;-70
2023/09/07 06:56:02;;;;;;;18.30;6.50;;;;;;;;;;5030033;28;20207;-70
2023/09/07 06:58:28;;;;;;;11.40;6.00;;;;;;;;;;5032514;28;20194;-70
2023/09/07 07:00:58;;;;;;;14.03;6.10;;;;;;;;;;5031710;28;20179;-70
2023/09/07 07:03:25;;;;;;;14.37;6.50;;;;;;;;;;5032168;28;20179;-70
2023/09/07 07:05:51;;;;;;;16.37;6.60;;;;;;;;;;5031208;28;20286;-70
2023/09/07 07:08:17;;;;;;;17.50;7.03;;;;;;;;;;5026654;28;20205;-70
2023/09/07 07:10:43;;;;;;;17.33;6.43;;;;;;;;;;5040888;28;20258;-70
2023/09/07 07:13:09;;;;;;;16.87;6.53;;;;;;;;;;5039485;28;20189;-67
2023/09/07 07:15:35;;;;;;;11.03;5.87;;;;;;;;;;5043753;28;20229;-70
2023/09/07 07:18:08;;;;;;;11.63;6.40;;;;;;;;;;5041395;28;20185;-69
2023/09/07 07:20:34;;;;;;;13.63;6.50;;;;;;;;;;5021168;28;20167;-70
2023/09/07 07:23:00;;;;;;;20.17;8.23;;;;;;;;;;5020739;28;20179;-70
2023/09/07 07:25:26;;;;;;;11.77;7.43;;;;;;;;;;5020193;28;20219;-69
2023/09/07 07:27:52;;;;;;;20.23;6.67;;;;;;;;;;5038117;28;20183;-68
2023/09/07 07:30:18;;;;;;;19.43;7.93;;;;;;;;;;5039525;28;20236;-68
2023/09/07 07:32:44;;;;;;;13.47;8.10;;;;;;;;;;5039035;28;20183;-68
2023/09/07 07:35:10;;;;;;;23.83;7.83;;;;;;;;;;5019811;28;20237;-68
2023/09/07 07:37:35;;;;;;;16.40;8.17;;;;;;;;;;5040566;28;20191;-69
2023/09/07 07:40:01;;;;;;;26.20;7.80;;;;;;;;;;5047995;28;20241;-68
2023/09/07 07:42:27;;;;;;;14.07;7.23;;;;;;;;;;5038484;28;20234;-68
2023/09/07 07:44:53;;;;;;;12.27;6.80;;;;;;;;;;5038509;28;20282;-68
2023/09/07 07:47:19;;;;;;;11.00;6.73;;;;;;;;;;5020408;28;20183;-68
2023/09/07 07:49:45;;;;;;;21.83;7.00;;;;;;;;;;5038872;28;20250;-69
2023/09/07 07:52:11;;;;;;;15.00;6.33;;;;;;;;;;5020228;28;20183;-69
2023/09/07 07:54:37;;;;;;;10.43;7.03;;;;;;;;;;5037851;28;20231;-69
2023/09/07 07:57:03;;;;;;;14.03;7.27;;;;;;;;;;5036313;28;20195;-69
2023/09/07 07:59:29;;;;;;;16.33;7.80;;;;;;;;;;5036369;28;20310;-68
2023/09/07 08:01:55;;;;;;;14.20;8.33;;;;;;;;;;5018633;28;20211;-69
2023/09/07 08:04:21;;;;;;;15.23;8.17;;;;;;;;;;5018177;28;20183;-69
2023/09/07 08:06:47;;;;;;;16.93;8.10;;;;;;;;;;5018476;28;20183;-69
2023/09/07 08:09:13;;;;;;;13.57;7.80;;;;;;;;;;5020050;28;20190;-69
2023/09/07 08:11:40;;;;;;;13.90;6.87;;;;;;;;;;5036904;28;20179;-69
2023/09/07 08:14:06;;;;;;;7.93;6.40;;;;;;;;;;5018954;28;20183;-69
2023/09/07 08:16:31;;;;;;;12.77;6.27;;;;;;;;;;5036229;28;20298;-70
2023/09/07 08:18:57;;;;;;;9.33;5.20;;;;;;;;;;5036176;28;20254;-69
2023/09/07 08:21:23;;;;;;;11.33;5.37;;;;;;;;;;5036477;28;20175;-69
2023/09/07 08:23:49;;;;;;;10.90;5.40;;;;;;;;;;5018671;28;20209;-69
2023/09/07 08:26:15;;;;;;;6.23;5.50;;;;;;;;;;5035700;28;20691;-70
2023/09/07 08:28:41;;;;;;;9.57;6.43;;;;;;;;;;5035928;28;20183;-70
2023/09/07 08:31:07;;;;;;;9.50;6.53;;;;;;;;;;5018484;28;20186;-69
2023/09/07 08:33:39;;;;;;;11.27;6.23;;;;;;;;;;5035853;28;20726;-69
2023/09/07 08:36:05;;;;;;;12.27;6.00;;;;;;;;;;5017868;28;20207;-69
2023/09/07 08:38:31;;;;;;;9.93;5.90;;;;;;;;;;5035804;28;20178;-70
2023/09/07 08:41:05;;;;;;;10.17;5.40;;;;;;;;;;5036042;28;20171;-70
2023/09/07 08:43:33;;;;;;;7.40;5.87;;;;;;;;;;5036409;28;20222;-69
2023/09/07 08:46:04;;;;;;;6.40;5.00;;;;;;;;;;5035411;28;20229;-69
2023/09/07 08:48:30;;;;;;;8.77;5.03;;;;;;;;;;5035865;28;20174;-69
2023/09/07 08:50:56;;;;;;;12.63;5.57;;;;;;;;;;5017933;28;20179;-70
2023/09/07 08:53:23;;;;;;;7.53;5.33;;;;;;;;;;5035883;28;20633;-69
2023/09/07 08:55:49;;;;;;;8.70;5.20;;;;;;;;;;5016968;28;20203;-70
2023/09/07 08:58:15;;;;;;;10.73;5.90;;;;;;;;;;5035323;28;20265;-70
2023/09/07 09:00:43;;;;;;;11.30;5.80;;;;;;;;;;5035099;28;20179;-69
2023/09/07 09:03:09;;;;;;;9.00;5.80;;;;;;;;;;5020581;28;20175;-69
2023/09/07 09:05:36;;;;;;;21.87;5.70;;;;;;;;;;5037476;28;20596;-69
2023/09/07 09:08:04;;;;;;;7.63;5.60;;;;;;;;;;5017465;28;20610;-70
2023/09/07 09:10:30;;;;;;;8.93;4.80;;;;;;;;;;5017266;28;20190;-69
2023/09/07 09:12:56;;;;;;;10.50;5.20;;;;;;;;;;5035027;28;20190;-69
2023/09/07 09:15:22;;;;;;;9.50;5.23;;;;;;;;;;5016994;28;20222;-70
2023/09/07 09:17:48;;;;;;;6.63;5.07;;;;;;;;;;5034779;28;20181;-69
2023/09/07 09:20:22;;;;;;;9.00;5.03;;;;;;;;;;5016832;28;20712;-69
2023/09/07 09:22:48;;;;;;;11.40;5.00;;;;;;;;;;5034639;28;20226;-69
2023/09/07 09:25:14;;;;;;;7.87;5.03;;;;;;;;;;5034235;28;20268;-69
2023/09/07 09:27:40;;;;;;;12.57;5.43;;;;;;;;;;5017063;28;20294;-69
2023/09/07 09:30:07;;;;;;;11.20;5.90;;;;;;;;;;5034929;28;20206;-68
2023/09/07 09:32:33;;;;;;;7.37;4.57;;;;;;;;;;5034551;28;20187;-69
2023/09/07 09:35:00;;;;;;;5.60;5.03;;;;;;;;;;5016957;28;20242;-68
2023/09/07 09:37:27;;;;;;;10.73;5.17;;;;;;;;;;5034947;28;20168;-69
2023/09/07 09:39:54;;;;;;;5.10;4.60;;;;;;;;;;5034600;28;20196;-69
2023/09/07 09:42:20;;;;;;;10.60;4.73;;;;;;;;;;5016492;28;20184;-69
2023/09/07 09:44:49;;;;;;;8.15;4.80;;;;;;;;;;5015388;28;20426;-69
2023/09/07 09:47:16;;;;;;;8.52;5.10;;;;;;;;;;5033165;28;20390;-69
2023/09/07 09:49:42;;;;;;;15.53;5.20;;;;;;;;;;5034882;28;20190;-68
2023/09/07 09:52:08;;;;;;;6.03;4.87;;;;;;;;;;5035231;28;20175;-69
2023/09/07 09:54:36;;;;;;;8.70;4.93;;;;;;;;;;5018194;28;20257;-69
2023/09/07 09:57:02;;;;;;;7.10;4.93;;;;;;;;;;5038184;28;20201;-68
2023/09/07 09:59:28;;;;;;;5.50;4.90;;;;;;;;;;5017526;28;20520;-68
2023/09/07 10:01:54;;;;;;;7.90;5.27;;;;;;;;;;5034358;28;20257;-68
2023/09/07 10:04:22;;;;;;;9.27;4.90;;;;;;;;;;5016431;28;20187;-68
2023/09/07 10:06:54;;;;;;;6.77;4.90;;;;;;;;;;5034709;28;20175;-68
2023/09/07 10:09:20;;;;;;;7.50;4.87;;;;;;;;;;5034001;28;20179;-69
2023/09/07 10:11:52;;;;;;;11.03;7.33;;;;;;;;;;5033992;28;20190;-69
2023/09/07 10:14:18;;;;;;;6.30;4.77;;;;;;;;;;5033931;28;20258;-68
2023/09/07 10:16:45;;;;;;;5.27;4.70;;;;;;;;;;5033790;28;20290;-68
2023/09/07 10:19:18;;;;;;;7.83;4.90;;;;;;;;;;5033903;28;20585;-68
2023/09/07 10:21:44;;;;;;;8.47;5.90;;;;;;;;;;5015989;28;20175;-68
2023/09/07 10:24:10;;;;;;;7.00;4.73;;;;;;;;;;5033459;28;20183;-68
2023/09/07 10:26:36;;;;;;;9.30;4.83;;;;;;;;;;5033891;28;20205;-68
2023/09/07 10:29:05;;;;;;;5.60;4.80;;;;;;;;;;5015661;28;20183;-68
2023/09/07 10:31:31;;;;;;;5.87;4.83;;;;;;;;;;5015747;28;20191;-68
2023/09/07 10:34:08;;;;;;;8.53;5.07;;;;;;;;;;5033613;28;20245;-68
2023/09/07 10:36:34;;;;;;;10.27;4.67;;;;;;;;;;5033498;28;20187;-68
2023/09/07 10:39:00;;;;;;;5.93;5.00;;;;;;;;;;5015644;28;20210;-68
2023/09/07 10:41:26;;;;;;;7.00;5.78;;;;;;;;;;5014261;28;20398;-68
2023/09/07 10:43:53;;;;;;;8.23;5.72;;;;;;;;;;5032178;28;20391;-68
2023/09/07 10:46:20;;;;;;;10.67;5.87;;;;;;;;;;5033061;28;20708;-68
2023/09/07 10:48:48;;;;;;;11.87;5.43;;;;;;;;;;5033140;28;20571;-68
2023/09/07 10:51:14;;;;;;;10.18;6.13;;;;;;;;;;5014436;28;20387;-68
2023/09/07 10:53:41;;;;;;;5.85;5.13;;;;;;;;;;5033704;28;20417;-68
2023/09/07 10:56:07;;;;;;;7.93;5.18;;;;;;;;;;5031839;28;20418;-67
2023/09/07 10:58:34;;;;;;;7.25;5.10;;;;;;;;;;5015523;28;20198;-68
2023/09/07 11:01:00;;;;;;;5.97;5.35;;;;;;;;;;5031889;28;20472;-68
2023/09/07 11:03:27;;;;;;;8.37;5.27;;;;;;;;;;5014246;28;20466;-68
2023/09/07 11:05:57;;;;;;;6.35;5.18;;;;;;;;;;5013984;28;20397;-68
2023/09/07 11:08:23;;;;;;;5.83;5.13;;;;;;;;;;5031855;28;20750;-68
2023/09/07 11:10:51;;;;;;;7.10;5.27;;;;;;;;;;5031763;28;20873;-69
2023/09/07 11:13:17;;;;;;;;;;;;;;;;;;5033344;28;20025;-69
2023/09/07 11:15:43;;;;;;;5.57;5.00;;;;;;;;;;5013619;28;20495;-69
2023/09/07 11:18:09;;;;;;;6.57;4.97;;;;;;;;;;5031660;28;20937;-69
2023/09/07 11:20:39;;;;;;;7.22;4.88;;;;;;;;;;5032229;28;20460;-69
2023/09/07 11:23:05;;;;;;;7.80;4.80;;;;;;;;;;5031831;28;20379;-67
2023/09/07 11:25:35;;;;;;;8.13;4.78;;;;;;;;;;5014347;28;20430;-68
2023/09/07 11:28:02;;;;;;;5.93;5.43;;;;;;;;;;5035516;28;20387;-67
2023/09/07 11:30:29;;;;;;;6.82;5.38;;;;;;;;;;5035443;28;20386;-69
2023/09/07 11:33:02;;;;;;;8.95;5.15;;;;;;;;;;5035306;28;20383;-68
2023/09/07 11:35:28;;;;;;;6.50;5.10;;;;;;;;;;5035411;28;20407;-68
2023/09/07 11:37:54;;;;;;;6.73;4.80;;;;;;;;;;5017680;28;20873;-68
2023/09/07 11:40:20;;;;;;;6.47;5.13;;;;;;;;;;5035172;28;20388;-68
2023/09/07 11:42:46;;;;;;;5.90;5.27;;;;;;;;;;5034917;28;20382;-68
2023/09/07 11:45:13;;;;;;;8.25;5.30;;;;;;;;;;5035230;28;20944;-68
2023/09/07 11:47:39;;;;;;;9.68;5.60;;;;;;;;;;5034947;28;20383;-69
2023/09/07 11:50:06;;;;;;;6.88;5.03;;;;;;;;;;5036080;28;20791;-69
2023/09/07 11:52:32;;;;;;;5.95;4.80;;;;;;;;;;5035027;28;20800;-69
2023/09/07 11:54:58;;;;;;;9.80;5.93;;;;;;;;;;5016858;28;20376;-68
2023/09/07 11:57:24;;;;;;;7.38;4.60;;;;;;;;;;5016985;28;20470;-69
2023/09/07 11:59:50;;;;;;;7.88;4.90;;;;;;;;;;5017017;28;20387;-68
2023/09/07 12:02:17;;;;;;;6.97;4.75;;;;;;;;;;5034622;28;20379;-68
2023/09/07 12:04:43;;;;;;;9.73;5.85;;;;;;;;;;5034666;28;20458;-68
2023/09/07 12:07:09;;;;;;;8.77;6.40;;;;;;;;;;5034694;28;20848;-68
2023/09/07 12:09:35;;;;;;;12.60;6.38;;;;;;;;;;5016959;28;20394;-68
2023/09/07 12:12:01;;;;;;;7.03;4.77;;;;;;;;;;5035053;28;20530;-69
2023/09/07 12:14:27;;;;;;;6.93;4.97;;;;;;;;;;5017335;28;20387;-68
2023/09/07 12:16:53;;;;;;;7.72;5.03;;;;;;;;;;5035772;28;20411;-70
2023/09/07 12:19:19;;;;;;;6.22;4.40;;;;;;;;;;5034690;28;20777;-68
2023/09/07 12:21:45;;;;;;;6.20;4.90;;;;;;;;;;5034995;28;20450;-68
2023/09/07 12:24:12;;;;;;;6.93;4.80;;;;;;;;;;5016783;28;20794;-69
2023/09/07 12:26:38;;;;;;;5.80;4.60;;;;;;;;;;5034480;28;20942;-68
2023/09/07 12:29:04;;;;;;;6.87;4.30;;;;;;;;;;5034689;28;20387;-69
2023/09/07 12:31:31;;;;;;;5.35;4.63;;;;;;;;;;5034159;28;20383;-68
2023/09/07 12:33:57;;;;;;;15.35;13.60;;;;;;;;;;5034231;28;20864;-68
2023/09/07 12:36:23;;;;;;;17.58;13.77;;;;;;;;;;5016979;28;20415;-68
2023/09/07 12:38:49;;;;;;;23.63;15.98;;;;;;;;;;5034469;28;20375;-68
2023/09/07 12:41:15;;;;;;;17.13;9.65;;;;;;;;;;5016373;28;20436;-68
2023/09/07 12:43:45;;;;;;;10.73;7.55;;;;;;;;;;5016749;28;20376;-68
2023/09/07 12:46:11;;;;;;;14.07;6.70;;;;;;;;;;5035834;28;20450;-67
2023/09/07 12:48:37;;;;;;;7.80;5.55;;;;;;;;;;5034312;28;20402;-68
2023/09/07 12:51:03;;;;;;;12.60;5.35;;;;;;;;;;5016383;28;20387;-69
2023/09/07 12:53:29;;;;;;;11.50;4.93;;;;;;;;;;5016745;28;20470;-69
2023/09/07 12:55:55;;;;;;;6.50;5.18;;;;;;;;;;5033460;28;20540;-68
2023/09/07 12:58:21;;;;;;;7.25;5.40;;;;;;;;;;5034419;28;20469;-68
2023/09/07 13:00:48;;;;;;;8.57;5.55;;;;;;;;;;5015813;28;20885;-68
2023/09/07 13:03:14;;;;;;;17.73;6.15;;;;;;;;;;5034001;28;20390;-69
2023/09/07 13:05:40;;;;;;;13.65;5.78;;;;;;;;;;5015874;28;20379;-68
2023/09/07 13:08:06;;;;;;;9.32;6.22;;;;;;;;;;5016102;28;20383;-68
2023/09/07 13:10:33;;;;;;;6.73;4.83;;;;;;;;;;5033627;28;20374;-69
2023/09/07 13:12:59;;;;;;;7.28;5.03;;;;;;;;;;5033743;28;20387;-68
2023/09/07 13:15:25;;;;;;;10.10;5.53;;;;;;;;;;5033540;28;20885;-69
2023/09/07 13:17:51;;;;;;;6.03;5.43;;;;;;;;;;5016175;28;20379;-69
2023/09/07 13:20:17;;;;;;;8.93;5.75;;;;;;;;;;5033389;28;20405;-69
2023/09/07 13:22:43;;;;;;;5.07;4.50;;;;;;;;;;5015905;28;20388;-69
2023/09/07 13:25:09;;;;;;;6.28;4.50;;;;;;;;;;5015430;28;20423;-68
2023/09/07 13:27:36;;;;;;;8.10;6.40;;;;;;;;;;5015718;28;20387;-69
2023/09/07 13:30:02;;;;;;;9.07;5.50;;;;;;;;;;5015401;28;20403;-68
2023/09/07 13:32:29;;;;;;;7.38;5.40;;;;;;;;;;5015639;28;20410;-68
2023/09/07 13:34:55;;;;;;;5.38;4.32;;;;;;;;;;5034301;28;20635;-69
2023/09/07 13:37:21;;;;;;;7.85;4.53;;;;;;;;;;5015500;28;20434;-69
2023/09/07 13:39:48;;;;;;;5.13;4.63;;;;;;;;;;5033217;28;20440;-69
2023/09/07 13:42:14;;;;;;;5.85;4.55;;;;;;;;;;5033945;28;20406;-68
2023/09/07 13:44:41;;;;;;;7.90;4.72;;;;;;;;;;5016970;28;20391;-69
2023/09/07 13:47:08;;;;;;;6.57;5.50;;;;;;;;;;5015899;28;20380;-69
2023/09/07 13:49:34;;;;;;;7.95;7.00;;;;;;;;;;5015069;28;20470;-69
2023/09/07 13:52:00;;;;;;;5.43;4.93;;;;;;;;;;5015522;28;20380;-69
2023/09/07 13:54:26;;;;;;;7.65;4.85;;;;;;;;;;5033088;28;20398;-69
2023/09/07 13:56:52;;;;;;;7.07;5.07;;;;;;;;;;5015053;28;20415;-69
2023/09/07 13:59:18;;;;;;;9.48;4.75;;;;;;;;;;5033179;28;20414;-69
2023/09/07 14:01:44;;;;;;;5.50;4.90;;;;;;;;;;5032731;28;20378;-69
2023/09/07 14:04:10;;;;;;;5.85;4.55;;;;;;;;;;5033131;28;20375;-70
2023/09/07 14:06:36;;;;;;;6.80;4.50;;;;;;;;;;5016021;28;20392;-69
2023/09/07 14:09:02;;;;;;;7.60;5.10;;;;;;;;;;5032885;28;20386;-69
2023/09/07 14:11:28;;;;;;;5.47;4.80;;;;;;;;;;5016056;28;20183;-69
2023/09/07 14:13:54;;;;;;;5.20;4.75;;;;;;;;;;5033624;28;20183;-69
2023/09/07 14:16:20;;;;;;;5.30;4.80;;;;;;;;;;5033752;28;20210;-69
2023/09/07 14:18:47;;;;;;;5.45;4.90;;;;;;;;;;5016380;28;20517;-69
2023/09/07 14:21:16;;;;;;;5.13;4.72;;;;;;;;;;5016031;28;20274;-69
2023/09/07 14:23:42;;;;;;;5.40;4.90;;;;;;;;;;5034075;28;20171;-69
2023/09/07 14:26:08;;;;;;;5.30;4.80;;;;;;;;;;5015760;28;20241;-69
2023/09/07 14:28:34;;;;;;;5.05;4.63;;;;;;;;;;5033719;28;20184;-69
2023/09/07 14:31:04;;;;;;;6.00;4.72;;;;;;;;;;5033818;28;20194;-68
2023/09/07 14:33:29;;;;;;;;;;;;;;;;;;5036334;28;20036;-69
2023/09/07 14:35:56;;;;;;;5.63;5.13;;;;;;;;;;5033480;28;20419;-69
2023/09/07 14:38:23;;;;;;;9.07;5.63;;;;;;;;;;5034881;28;20171;-69
2023/09/07 14:40:50;;;;;;;7.25;5.50;;;;;;;;;;5016758;28;20211;-68
2023/09/07 14:43:19;;;;;;;6.20;5.68;;;;;;;;;;5034649;28;20163;-68
2023/09/07 14:45:45;;;;;;;7.80;6.18;;;;;;;;;;5033705;28;20248;-69
2023/09/07 14:48:11;;;;;;;7.45;6.60;;;;;;;;;;5032392;28;20383;-68
2023/09/07 14:50:38;;;;;;;6.78;5.60;;;;;;;;;;5032661;28;20477;-68
2023/09/07 14:53:04;;;;;;;9.38;5.43;;;;;;;;;;5032929;28;20383;-69